createdAt,value
2022-11-05T00:01:32.406Z,1.63
2022-11-05T00:04:17.504Z,1.15
2022-11-05T00:07:02.692Z,1.42
2022-11-05T00:09:29.638Z,1.27
2022-11-05T00:12:25.236Z,1.50
2022-11-05T00:15:10.205Z,1.23
2022-11-05T00:17:36.578Z,1.63
2022-11-05T00:20:06.681Z,1.00
2022-11-05T00:22:51.933Z,1.00
2022-11-05T00:25:19.060Z,1.05
2022-11-05T00:27:46.126Z,1.15
2022-11-05T00:30:13.518Z,1.10
2022-11-05T00:32:40.282Z,1.13
2022-11-05T00:35:07.500Z,1.20
2022-11-05T00:37:33.877Z,0.93
2022-11-05T00:40:00.214Z,0.93
2022-11-05T00:42:44.965Z,1.23
2022-11-05T00:45:11.935Z,1.20
2022-11-05T00:47:57.484Z,1.23
2022-11-05T00:50:24.194Z,1.20
2022-11-05T00:52:56.859Z,0.90
2022-11-05T00:55:31.061Z,1.20
2022-11-05T00:57:57.830Z,0.80
2022-11-05T01:00:25.141Z,0.90
2022-11-05T01:02:52.018Z,1.00
2022-11-05T01:05:18.695Z,1.27
2022-11-05T01:07:45.018Z,1.20
2022-11-05T01:10:11.387Z,1.30
2022-11-05T01:12:37.760Z,1.05
2022-11-05T01:15:04.300Z,1.33
2022-11-05T01:17:30.668Z,1.30
2022-11-05T01:19:57.062Z,1.15
2022-11-05T01:22:23.458Z,1.08
2022-11-05T01:24:49.861Z,1.40
2022-11-05T01:27:16.233Z,1.55
2022-11-05T01:29:42.864Z,1.30
2022-11-05T01:32:09.279Z,3.22
2022-11-05T01:34:35.686Z,1.08
2022-11-05T01:37:02.015Z,1.35
2022-11-05T01:39:28.421Z,2.13
2022-11-05T01:41:54.993Z,1.25
2022-11-05T01:44:40.321Z,1.52
2022-11-05T01:47:08.698Z,1.70
2022-11-05T01:49:35.092Z,1.65
2022-11-05T01:52:03.943Z,1.50
2022-11-05T01:54:32.138Z,1.25
2022-11-05T01:57:03.848Z,1.67
2022-11-05T01:59:35.488Z,1.55
2022-11-05T02:02:02.400Z,1.48
2022-11-05T02:04:36.759Z,1.23
2022-11-05T02:07:04.353Z,1.45
2022-11-05T02:09:37.153Z,1.30
2022-11-05T02:12:03.631Z,1.25
2022-11-05T02:14:29.961Z,0.90
2022-11-05T02:17:00.949Z,1.52
2022-11-05T02:19:30.114Z,1.30
2022-11-05T02:22:25.833Z,1.40
2022-11-05T02:25:05.323Z,1.85
2022-11-05T02:30:04.022Z,1.45
2022-11-05T02:32:49.092Z,2.40
2022-11-05T02:35:15.409Z,1.17
2022-11-05T02:37:46.091Z,1.30
2022-11-05T02:40:25.981Z,1.60
2022-11-05T02:42:55.073Z,1.30
2022-11-05T02:45:30.033Z,1.65
2022-11-05T02:48:08.606Z,1.85
2022-11-05T02:50:37.663Z,1.53
2022-11-05T02:53:10.157Z,1.95
2022-11-05T02:55:38.764Z,1.10
2022-11-05T02:58:05.717Z,1.85
2022-11-05T03:00:50.722Z,1.67
2022-11-05T03:03:20.366Z,1.50
2022-11-05T03:05:51.149Z,1.73
2022-11-05T03:08:30.247Z,1.30
2022-11-05T03:11:00.168Z,3.33
2022-11-05T03:13:45.229Z,1.60
2022-11-05T03:16:29.737Z,1.77
2022-11-05T03:19:13.014Z,1.23
2022-11-05T03:21:39.353Z,1.40
2022-11-05T03:24:11.240Z,1.38
2022-11-05T03:26:57.852Z,1.42
2022-11-05T03:29:26.052Z,1.40
2022-11-05T03:31:54.961Z,1.38
2022-11-05T03:34:24.903Z,1.33
2022-11-05T03:36:53.116Z,1.15
2022-11-05T03:39:22.063Z,1.58
2022-11-05T03:41:49.445Z,1.33
2022-11-05T03:44:17.385Z,1.20
2022-11-05T03:46:47.927Z,1.55
2022-11-05T03:49:21.491Z,1.85
2022-11-05T03:52:06.350Z,1.48
2022-11-05T03:54:33.494Z,1.38
2022-11-05T03:57:03.297Z,1.45
2022-11-05T03:59:30.731Z,1.70
2022-11-05T04:01:57.732Z,1.65
2022-11-05T04:04:24.469Z,1.85
2022-11-05T04:07:09.342Z,1.45
2022-11-05T04:09:54.100Z,2.28
2022-11-05T04:12:38.935Z,1.55
2022-11-05T04:15:05.492Z,1.52
2022-11-05T04:17:31.880Z,1.30
2022-11-05T04:20:17.012Z,1.60
2022-11-05T04:23:01.871Z,1.30
2022-11-05T04:25:28.200Z,1.45
2022-11-05T04:27:58.392Z,1.17
2022-11-05T04:30:24.746Z,1.55
2022-11-05T04:32:57.655Z,1.20
2022-11-05T04:35:24.581Z,1.45
2022-11-05T04:37:51.048Z,1.42
2022-11-05T04:40:17.415Z,1.10
2022-11-05T04:42:43.745Z,1.00
2022-11-05T04:45:10.210Z,1.35
2022-11-05T04:47:40.885Z,0.90
2022-11-05T04:50:08.932Z,1.05
2022-11-05T04:52:35.299Z,1.00
2022-11-05T04:55:01.706Z,1.50
2022-11-05T04:57:28.014Z,1.30
2022-11-05T04:59:55.121Z,1.17
2022-11-05T05:02:21.596Z,1.20
2022-11-05T05:04:47.982Z,1.63
2022-11-05T05:07:14.385Z,1.40
2022-11-05T05:09:40.774Z,1.90
2022-11-05T05:12:07.972Z,1.63
2022-11-05T05:14:34.865Z,1.35
2022-11-05T05:17:01.231Z,2.83
2022-11-05T05:19:27.760Z,1.52
2022-11-05T05:21:54.089Z,1.33
2022-11-05T05:24:21.233Z,1.50
2022-11-05T05:26:48.660Z,1.20
2022-11-05T05:29:15.466Z,2.72
2022-11-05T05:31:42.103Z,1.58
2022-11-05T05:34:10.378Z,1.50
2022-11-05T05:36:36.795Z,2.03
2022-11-05T05:39:06.916Z,2.03
2022-11-05T05:41:33.409Z,1.70
2022-11-05T05:43:59.889Z,1.60
2022-11-05T05:46:26.277Z,1.00
2022-11-05T05:48:52.698Z,1.13
2022-11-05T05:51:19.132Z,1.33
2022-11-05T05:53:45.873Z,1.63
2022-11-05T05:56:14.961Z,1.35
2022-11-05T05:58:41.603Z,0.98
2022-11-05T06:01:12.932Z,1.02
2022-11-05T06:03:42.015Z,1.20
2022-11-05T06:06:09.689Z,1.38
2022-11-05T06:08:38.442Z,1.00
2022-11-05T06:11:05.530Z,1.05
2022-11-05T06:13:32.661Z,1.38
2022-11-05T06:16:06.489Z,1.17
2022-11-05T06:18:33.749Z,1.10
2022-11-05T06:21:03.971Z,1.52
2022-11-05T06:23:34.207Z,1.33
2022-11-05T06:26:04.619Z,1.35
2022-11-05T06:28:31.098Z,0.90
2022-11-05T06:30:57.790Z,1.30
2022-11-05T06:33:24.479Z,0.80
2022-11-05T06:35:50.994Z,1.23
2022-11-05T06:38:17.422Z,1.13
2022-11-05T06:40:43.836Z,1.33
2022-11-05T06:43:10.631Z,1.65
2022-11-05T06:45:37.219Z,1.30
2022-11-05T06:48:03.642Z,2.63
2022-11-05T06:50:30.120Z,3.42
2022-11-05T06:52:57.420Z,2.70
2022-11-05T06:55:24.383Z,2.58
2022-11-05T06:57:51.033Z,2.90
2022-11-05T07:00:18.181Z,2.13
2022-11-05T07:02:44.933Z,1.70
2022-11-05T07:05:11.332Z,1.83
2022-11-05T07:07:38.399Z,2.08
2022-11-05T07:10:05.906Z,1.70
2022-11-05T07:12:32.350Z,1.55
2022-11-05T07:14:58.800Z,1.65
2022-11-05T07:17:25.207Z,2.22
2022-11-05T07:19:51.639Z,1.30
2022-11-05T07:22:18.103Z,1.02
2022-11-05T07:24:47.219Z,1.38
2022-11-05T07:27:13.981Z,1.90
2022-11-05T07:29:40.454Z,1.52
2022-11-05T07:32:06.893Z,1.17
2022-11-05T07:34:33.286Z,0.93
2022-11-05T07:36:59.689Z,1.92
2022-11-05T07:39:26.037Z,1.80
2022-11-05T07:41:53.230Z,1.30
2022-11-05T07:44:19.692Z,1.15
2022-11-05T07:46:46.230Z,1.50
2022-11-05T07:49:12.626Z,1.55
2022-11-05T07:51:39.014Z,1.98
2022-11-05T07:54:05.391Z,1.30
2022-11-05T07:56:31.824Z,2.42
2022-11-05T07:58:58.345Z,1.13
2022-11-05T08:01:25.080Z,1.27
2022-11-05T08:03:51.623Z,1.27
2022-11-05T08:06:18.197Z,1.40
2022-11-05T08:08:44.560Z,1.55
2022-11-05T08:11:11.977Z,1.17
2022-11-05T08:13:38.585Z,0.90
2022-11-05T08:16:05.378Z,0.90
2022-11-05T08:18:32.223Z,1.48
2022-11-05T08:20:59.959Z,1.10
2022-11-05T08:23:27.030Z,1.25
2022-11-05T08:25:53.649Z,1.15
2022-11-05T08:28:21.918Z,1.30
2022-11-05T08:30:49.206Z,0.93
2022-11-05T08:33:15.876Z,1.33
2022-11-05T08:35:42.584Z,1.33
2022-11-05T08:38:10.861Z,2.00
2022-11-05T08:40:37.297Z,1.30
2022-11-05T08:43:04.870Z,1.50
2022-11-05T08:45:31.583Z,1.10
2022-11-05T08:47:58.639Z,1.65
2022-11-05T08:50:25.123Z,1.52
2022-11-05T08:52:51.563Z,1.20
2022-11-05T08:55:19.041Z,1.30
2022-11-05T08:57:48.434Z,1.38
2022-11-05T09:02:41.270Z,1.02
2022-11-05T09:05:08.052Z,1.17
2022-11-05T09:07:34.427Z,1.20
2022-11-05T09:10:00.875Z,1.15
2022-11-05T09:12:27.254Z,1.30
2022-11-05T09:14:53.615Z,1.30
2022-11-05T09:17:20.909Z,1.55
2022-11-05T09:19:47.849Z,0.98
2022-11-05T09:22:14.497Z,1.00
2022-11-05T09:24:41.454Z,1.33
2022-11-05T09:27:13.183Z,1.00
2022-11-05T09:29:39.669Z,0.70
2022-11-05T09:32:06.291Z,0.90
2022-11-05T09:34:32.818Z,0.82
2022-11-05T09:36:59.267Z,0.90
2022-11-05T09:39:25.834Z,0.90
2022-11-05T09:41:53.736Z,1.00
2022-11-05T09:44:22.180Z,1.15
2022-11-05T09:46:51.628Z,0.82
2022-11-05T09:49:30.545Z,1.08
2022-11-05T09:51:58.182Z,1.20
2022-11-05T09:54:25.842Z,0.90
2022-11-05T09:56:53.059Z,0.90
2022-11-05T09:59:44.781Z,1.23
2022-11-05T10:02:25.894Z,1.95
2022-11-05T10:04:54.354Z,1.00
2022-11-05T10:07:23.037Z,1.40
2022-11-05T10:09:51.512Z,1.00
2022-11-05T10:12:17.926Z,1.70
2022-11-05T10:14:47.343Z,1.13
2022-11-05T10:19:59.227Z,0.85
2022-11-05T10:22:25.856Z,1.13
2022-11-05T10:24:53.497Z,1.20
2022-11-05T10:27:23.191Z,1.45
2022-11-05T10:29:50.227Z,1.20
2022-11-05T10:32:36.827Z,0.90
2022-11-05T10:35:05.213Z,0.90
2022-11-05T10:37:34.187Z,1.05
2022-11-05T10:40:09.221Z,1.10
2022-11-05T10:42:54.291Z,1.25
2022-11-05T10:45:23.785Z,1.02
2022-11-05T10:48:02.449Z,1.17
2022-11-05T10:50:29.618Z,0.80
2022-11-05T10:52:55.952Z,1.48
2022-11-05T10:55:22.408Z,1.15
2022-11-05T10:57:51.796Z,1.35
2022-11-05T11:02:49.318Z,1.20
2022-11-05T11:05:33.599Z,0.70
2022-11-05T11:08:00.123Z,0.70
2022-11-05T11:10:27.212Z,0.95
2022-11-05T11:12:54.416Z,1.10
2022-11-05T11:15:20.742Z,0.93
2022-11-05T11:17:47.651Z,1.30
2022-11-05T11:20:22.946Z,1.20
2022-11-05T11:22:59.718Z,1.23
2022-11-05T11:25:27.713Z,1.15
2022-11-05T11:27:54.596Z,1.15
2022-11-05T11:30:21.691Z,1.13
2022-11-05T11:32:49.324Z,1.23
2022-11-05T11:35:22.808Z,0.93
2022-11-05T11:37:51.828Z,0.90
2022-11-05T11:40:29.183Z,0.90
2022-11-05T11:42:57.073Z,0.80
2022-11-05T11:45:44.783Z,1.13
2022-11-05T11:48:15.731Z,0.57
2022-11-05T11:50:43.088Z,0.68
2022-11-05T11:53:15.797Z,0.80
2022-11-05T11:55:56.700Z,0.90
2022-11-05T11:58:23.795Z,0.80
2022-11-05T12:00:52.261Z,0.95
2022-11-05T12:03:19.039Z,0.97
2022-11-05T12:05:53.849Z,0.90
2022-11-05T12:08:20.264Z,1.23
2022-11-05T12:11:05.629Z,1.20
2022-11-05T12:13:38.845Z,1.13
2022-11-05T12:16:25.530Z,1.13
2022-11-05T12:18:54.981Z,0.75
2022-11-05T12:21:50.929Z,1.08
2022-11-05T12:24:24.563Z,1.10
2022-11-05T12:27:14.087Z,1.30
2022-11-05T12:29:46.748Z,0.80
2022-11-05T12:32:39.577Z,1.30
2022-11-05T12:35:22.254Z,1.00
2022-11-05T12:37:51.726Z,0.52
2022-11-05T12:40:27.420Z,0.60
2022-11-05T12:42:53.810Z,0.73
2022-11-05T12:45:29.353Z,0.85
2022-11-05T12:47:57.049Z,0.88
2022-11-05T12:50:23.593Z,0.90
2022-11-05T12:52:57.738Z,1.30
2022-11-05T12:55:25.638Z,0.70
2022-11-05T12:57:53.432Z,1.30
2022-11-05T13:00:29.194Z,0.75
2022-11-05T13:03:14.644Z,0.82
2022-11-05T13:05:43.432Z,0.70
2022-11-05T13:08:15.896Z,0.88
2022-11-05T13:10:51.996Z,0.60
2022-11-05T13:13:24.550Z,0.90
2022-11-05T13:15:53.817Z,0.65
2022-11-05T13:18:24.032Z,0.60
2022-11-05T13:20:51.097Z,0.52
2022-11-05T13:23:21.250Z,0.52
2022-11-05T13:25:53.529Z,0.70
2022-11-05T13:28:35.721Z,0.60
2022-11-05T13:31:03.616Z,1.02
2022-11-05T13:33:34.399Z,0.75
2022-11-05T13:36:38.055Z,0.73
2022-11-05T13:39:30.568Z,0.60
2022-11-05T13:42:15.749Z,0.63
2022-11-05T13:44:48.370Z,0.50
2022-11-05T13:47:27.159Z,1.02
2022-11-05T13:50:12.057Z,0.65
2022-11-05T13:52:46.146Z,0.70
2022-11-05T13:55:30.042Z,0.88
2022-11-05T13:57:56.546Z,0.65
2022-11-05T14:00:30.002Z,0.85
2022-11-05T14:02:59.004Z,0.77
2022-11-05T14:05:30.604Z,0.50
2022-11-05T14:07:58.442Z,0.95
2022-11-05T14:10:36.101Z,0.90
2022-11-05T14:13:23.615Z,0.70
2022-11-05T14:16:04.648Z,0.73
2022-11-05T14:18:35.793Z,0.82
2022-11-05T14:21:03.584Z,0.68
2022-11-05T14:23:30.766Z,0.82
2022-11-05T14:26:11.255Z,0.70
2022-11-05T14:28:38.087Z,0.68
2022-11-05T14:31:20.247Z,0.90
2022-11-05T14:34:03.935Z,0.52
2022-11-05T14:36:37.373Z,0.77
2022-11-05T14:39:13.562Z,0.63
2022-11-05T14:41:58.800Z,0.82
2022-11-05T14:44:25.833Z,0.85
2022-11-05T14:46:54.472Z,0.73
2022-11-05T14:49:23.028Z,0.75
2022-11-05T14:51:51.325Z,0.90
2022-11-05T14:54:22.882Z,0.60
2022-11-05T14:56:59.693Z,0.68
2022-11-05T14:59:28.241Z,0.70
2022-11-05T15:02:01.165Z,0.77
2022-11-05T15:04:31.892Z,1.02
2022-11-05T15:07:04.346Z,0.80
2022-11-05T15:09:42.759Z,0.70
2022-11-05T15:12:18.427Z,1.00
2022-11-05T15:15:01.612Z,1.13
2022-11-05T15:17:30.077Z,0.90
2022-11-05T15:20:17.843Z,0.87
2022-11-05T15:22:48.892Z,0.60
2022-11-05T15:25:36.860Z,1.23
2022-11-05T15:28:10.717Z,1.10
2022-11-05T15:30:37.295Z,0.85
2022-11-05T15:33:17.090Z,0.93
2022-11-05T15:35:43.694Z,0.90
2022-11-05T15:38:27.831Z,0.90
2022-11-05T15:41:01.649Z,1.38
2022-11-05T15:43:28.283Z,1.20
2022-11-05T15:46:18.273Z,1.20
2022-11-05T15:48:45.546Z,1.00
2022-11-05T15:51:12.029Z,1.30
2022-11-05T15:54:02.270Z,0.93
2022-11-05T15:56:59.968Z,0.90
2022-11-05T15:59:27.389Z,1.08
2022-11-05T16:01:59.892Z,1.30
2022-11-05T16:04:28.779Z,1.05
2022-11-05T16:06:57.231Z,1.33
2022-11-05T16:09:32.011Z,1.30
2022-11-05T16:12:14.979Z,1.50
2022-11-05T16:14:41.811Z,1.42
2022-11-05T16:17:19.383Z,1.52
2022-11-05T16:19:46.459Z,1.33
2022-11-05T16:22:12.799Z,2.00
2022-11-05T16:24:39.221Z,2.70
2022-11-05T16:27:06.027Z,1.90
2022-11-05T16:29:34.178Z,2.67
2022-11-05T16:32:02.003Z,3.60
2022-11-05T16:34:33.008Z,4.03
2022-11-05T16:36:59.704Z,2.20
2022-11-05T16:39:26.627Z,2.22
2022-11-05T16:41:53.059Z,1.88
2022-11-05T16:44:19.558Z,1.90
2022-11-05T16:46:47.248Z,1.85
2022-11-05T16:49:14.072Z,1.90
2022-11-05T16:51:40.923Z,1.48
2022-11-05T16:54:07.492Z,1.20
2022-11-05T16:56:34.178Z,1.70
2022-11-05T16:59:00.669Z,1.63
2022-11-05T17:01:28.034Z,1.30
2022-11-05T17:03:54.821Z,1.58
2022-11-05T17:06:21.757Z,1.52
2022-11-05T17:08:48.627Z,1.98
2022-11-05T17:11:15.953Z,1.20
2022-11-05T17:13:42.735Z,1.20
2022-11-05T17:16:13.757Z,1.38
2022-11-05T17:18:40.800Z,1.55
2022-11-05T17:21:07.947Z,1.50
2022-11-05T17:23:35.195Z,1.30
2022-11-05T17:26:06.222Z,1.35
2022-11-05T17:28:33.001Z,1.58
2022-11-05T17:31:03.531Z,0.98
2022-11-05T17:33:30.341Z,1.10
2022-11-05T17:35:57.032Z,1.05
2022-11-05T17:38:24.168Z,1.13
2022-11-05T17:40:50.848Z,1.05
2022-11-05T17:43:17.635Z,1.60
2022-11-05T17:45:45.391Z,1.60
2022-11-05T17:48:12.225Z,1.25
2022-11-05T17:50:42.547Z,1.60
2022-11-05T17:53:09.570Z,1.85
2022-11-05T17:55:36.279Z,2.42
2022-11-05T17:58:02.941Z,1.60
2022-11-05T18:00:29.503Z,1.58
2022-11-05T18:02:55.986Z,2.47
2022-11-05T18:05:23.063Z,1.23
2022-11-05T18:07:49.650Z,1.70
2022-11-05T18:10:16.343Z,1.27
2022-11-05T18:12:43.236Z,1.45
2022-11-05T18:15:09.849Z,1.40
2022-11-05T18:17:36.487Z,1.45
2022-11-05T18:20:03.249Z,2.13
2022-11-05T18:22:29.698Z,1.73
2022-11-05T18:24:56.130Z,1.40
2022-11-05T18:27:27.686Z,1.58
2022-11-05T18:29:54.494Z,1.80
2022-11-05T18:32:20.962Z,1.52
2022-11-05T18:34:47.430Z,1.60
2022-11-05T18:37:13.836Z,1.42
2022-11-05T18:39:40.494Z,1.30
2022-11-05T18:42:06.940Z,1.30
2022-11-05T18:44:37.940Z,1.52
2022-11-05T18:47:06.856Z,1.60
2022-11-05T18:49:33.344Z,1.80
2022-11-05T18:51:59.847Z,1.92
2022-11-05T18:54:26.480Z,1.55
2022-11-05T18:56:52.889Z,1.70
2022-11-05T18:59:36.678Z,1.70
2022-11-05T19:02:04.718Z,1.80
2022-11-05T19:04:31.388Z,1.60
2022-11-05T19:07:01.664Z,1.80
2022-11-05T19:09:31.331Z,1.45
2022-11-05T19:11:57.809Z,1.55
2022-11-05T19:14:24.260Z,1.63
2022-11-05T19:16:50.713Z,1.75
2022-11-05T19:19:17.093Z,1.70
2022-11-05T19:21:43.538Z,2.10
2022-11-05T19:24:09.918Z,1.95
2022-11-05T19:26:36.302Z,1.70
2022-11-05T19:29:03.186Z,1.63
2022-11-05T19:31:30.242Z,1.65
2022-11-05T19:33:56.785Z,1.80
2022-11-05T19:36:23.982Z,1.63
2022-11-05T19:38:54.638Z,1.60
2022-11-05T19:41:22.292Z,1.90
2022-11-05T19:43:48.888Z,1.67
2022-11-05T19:46:16.966Z,2.03
2022-11-05T19:48:43.726Z,1.67
2022-11-05T19:51:13.027Z,1.35
2022-11-05T19:53:39.826Z,1.30
2022-11-05T19:56:10.970Z,1.17
2022-11-05T19:58:37.354Z,1.27
2022-11-05T20:01:04.223Z,1.10
2022-11-05T20:03:30.909Z,0.80
2022-11-05T20:06:04.404Z,0.90
2022-11-05T20:08:30.798Z,0.75
2022-11-05T20:10:57.545Z,1.17
2022-11-05T20:13:24.322Z,1.13
2022-11-05T20:15:50.856Z,1.40
2022-11-05T20:18:17.403Z,1.20
2022-11-05T20:20:44.018Z,1.10
2022-11-05T20:23:10.970Z,1.02
2022-11-05T20:25:37.393Z,1.10
2022-11-05T20:28:03.923Z,0.90
2022-11-05T20:30:30.797Z,1.02
2022-11-05T20:32:57.711Z,1.02
2022-11-05T20:35:24.281Z,0.90
2022-11-05T20:37:53.969Z,1.00
2022-11-05T20:40:20.885Z,1.10
2022-11-05T20:42:47.271Z,1.58
2022-11-05T20:45:13.744Z,1.50
2022-11-05T20:47:40.219Z,1.45
2022-11-05T20:50:06.979Z,1.60
2022-11-05T20:52:33.784Z,1.45
2022-11-05T20:55:01.192Z,1.52
2022-11-05T20:57:27.594Z,2.00
2022-11-05T20:59:54.468Z,1.90
2022-11-05T21:02:20.995Z,2.13
2022-11-05T21:04:47.694Z,1.95
2022-11-05T21:07:14.219Z,1.85
2022-11-05T21:09:40.654Z,2.08
2022-11-05T21:12:12.792Z,2.28
2022-11-05T21:14:40.052Z,2.10
2022-11-05T21:17:07.469Z,2.08
2022-11-05T21:19:34.318Z,2.45
2022-11-05T21:22:01.034Z,2.90
2022-11-05T21:24:27.441Z,2.10
2022-11-05T21:26:53.930Z,1.92
2022-11-05T21:29:20.648Z,2.45
2022-11-05T21:31:47.594Z,2.10
2022-11-05T21:34:14.286Z,4.05
2022-11-05T21:36:40.843Z,2.38
2022-11-05T21:39:12.181Z,2.33
2022-11-05T21:41:40.060Z,2.42
2022-11-05T21:44:06.537Z,2.58
2022-11-05T21:46:33.179Z,2.42
2022-11-05T21:48:59.714Z,2.65
2022-11-05T21:51:44.778Z,2.78
2022-11-05T21:54:30.781Z,2.95
2022-11-05T21:57:16.166Z,3.13
2022-11-05T21:59:48.310Z,3.10
2022-11-05T22:02:16.161Z,3.42
2022-11-05T22:04:43.771Z,3.08
2022-11-05T22:07:11.556Z,3.33
2022-11-05T22:09:38.065Z,3.78
2022-11-05T22:12:04.686Z,3.42
2022-11-05T22:14:31.527Z,3.58
2022-11-05T22:16:58.118Z,3.28
2022-11-05T22:19:24.992Z,3.08
2022-11-05T22:21:51.464Z,3.63
2022-11-05T22:24:18.110Z,3.30
2022-11-05T22:26:44.986Z,3.17
2022-11-05T22:29:12.169Z,3.50
2022-11-05T22:31:38.558Z,3.40
2022-11-05T22:34:06.150Z,3.55
2022-11-05T22:36:33.244Z,3.90
2022-11-05T22:38:59.622Z,4.10
2022-11-05T22:41:26.057Z,3.40
2022-11-05T22:43:52.435Z,3.63
2022-11-05T22:46:20.762Z,4.13
2022-11-05T22:48:47.480Z,3.92
2022-11-05T22:51:34.099Z,4.63
2022-11-05T22:54:00.597Z,4.07
2022-11-05T22:56:28.057Z,4.65
2022-11-05T22:58:54.446Z,4.30
2022-11-05T23:01:22.006Z,3.88
2022-11-05T23:03:49.736Z,4.35
2022-11-05T23:06:38.990Z,3.75
2022-11-05T23:09:25.327Z,4.10
2022-11-05T23:11:52.572Z,3.95
2022-11-05T23:14:19.447Z,3.88
2022-11-05T23:17:04.192Z,4.18
2022-11-05T23:19:49.524Z,4.13
2022-11-05T23:22:41.732Z,4.32
2022-11-05T23:25:09.590Z,3.55
2022-11-05T23:27:37.417Z,4.18
2022-11-05T23:30:08.817Z,4.10
2022-11-05T23:32:35.185Z,4.10
2022-11-05T23:35:01.854Z,4.00
2022-11-05T23:37:47.978Z,4.18
2022-11-05T23:40:18.639Z,4.32
2022-11-05T23:43:03.966Z,4.10
2022-11-05T23:45:49.583Z,4.20
2022-11-05T23:48:25.277Z,4.93
2022-11-05T23:50:51.676Z,4.88
2022-11-05T23:53:18.463Z,4.40
2022-11-05T23:55:44.968Z,5.05
2022-11-05T23:58:11.843Z,4.97
